Time;durP1;ratioP1;P1;durP2;ratioP2;P2;SDS_P1;SDS_P2;PMS_P1;PMS_P2;Temp;Humidity;BMP_temperature;BMP_pressure;BME280_temperature;BME280_humidity;BME280_pressure;Samples;Min_cycle;Max_cycle;Signal;HPM_P1;HPM_P2
2022/01/03 00:02:15;;;;;;;42.00;21.27;;;;;;;3.84;nan;100692.16;5030286;28;20302;-72
2022/01/03 00:04:41;;;;;;;45.85;23.17;;;;;;;3.89;nan;100696.84;5031605;28;20029;-72
2022/01/03 00:07:06;;;;;;;42.00;21.00;;;;;;;3.86;nan;100673.75;5029544;28;20449;-73
2022/01/03 00:09:32;;;;;;;39.15;19.60;;;;;;;3.83;nan;100683.53;5029764;28;20040;-73
2022/01/03 00:11:57;;;;;;;40.20;21.17;;;;;;;3.82;nan;100681.91;5031541;28;20475;-72
2022/01/03 00:14:26;;;;;;;41.05;21.55;;;;;;;3.88;nan;100684.78;5031393;28;20483;-70
2022/01/03 00:16:52;;;;;;;36.20;20.48;;;;;;;3.78;nan;100679.81;5030872;28;20379;-73
2022/01/03 00:19:17;;;;;;;36.03;19.65;;;;;;;3.84;nan;100700.78;5031214;28;20033;-73
2022/01/03 00:21:46;;;;;;;36.40;20.13;;;;;;;3.80;nan;100704.69;5031181;28;20390;-72
2022/01/03 00:24:12;;;;;;;35.70;19.50;;;;;;;3.82;nan;100720.16;5029889;28;20073;-72
2022/01/03 00:26:40;;;;;;;40.33;19.50;;;;;;;3.74;nan;100699.38;5031327;28;20033;-72
2022/01/03 00:29:14;;;;;;;35.47;18.98;;;;;;;3.60;nan;100682.69;5031438;28;20120;-73
2022/01/03 00:31:41;;;;;;;37.05;19.95;;;;;;;3.72;nan;100711.78;5035288;28;20030;-73
2022/01/03 00:34:10;;;;;;;33.63;19.15;;;;;;;3.60;nan;100696.53;5033782;28;20038;-72
2022/01/03 00:36:36;;;;;;;33.60;18.88;;;;;;;3.63;nan;100706.59;5035023;28;20064;-72
2022/01/03 00:39:08;;;;;;;33.05;18.45;;;;;;;3.63;nan;100718.81;5040080;28;20037;-72
2022/01/03 00:41:38;;;;;;;33.65;18.58;;;;;;;3.63;nan;100722.22;5055339;28;20131;-72
2022/01/03 00:44:04;;;;;;;38.28;20.42;;;;;;;3.57;nan;100709.91;5037627;28;20429;-72
2022/01/03 00:46:32;;;;;;;41.22;20.95;;;;;;;3.61;nan;100718.97;5054678;28;20119;-71
2022/01/03 00:49:00;;;;;;;37.85;20.27;;;;;;;3.54;nan;100715.44;5035653;28;20440;-74
2022/01/03 00:51:26;;;;;;;35.28;18.35;;;;;;;3.52;nan;100713.97;5035497;28;20033;-72
2022/01/03 00:53:51;;;;;;;33.22;18.08;;;;;;;3.49;nan;100722.94;5054432;28;20029;-72
2022/01/03 00:56:33;;;;;;;35.05;19.52;;;;;;;3.53;nan;100744.25;5036778;28;20045;-73
2022/01/03 00:59:09;;;;;;;39.75;20.35;;;;;;;3.51;nan;100756.63;5054494;28;20037;-73
2022/01/03 01:01:46;;;;;;;38.25;18.25;;;;;;;3.46;nan;100758.94;5054012;28;20386;-73
2022/01/03 01:04:13;;;;;;;37.28;18.35;;;;;;;3.32;nan;100731.81;5035356;28;20487;-73
2022/01/03 01:06:39;;;;;;;35.97;18.15;;;;;;;3.38;nan;100747.56;5054458;28;20033;-73
2022/01/03 01:09:08;;;;;;;36.30;18.13;;;;;;;3.34;nan;100742.88;5054097;28;20122;-73
2022/01/03 01:11:34;;;;;;;37.78;19.27;;;;;;;3.35;nan;100734.91;5036720;28;20067;-73
2022/01/03 01:14:02;;;;;;;37.78;19.65;;;;;;;3.31;nan;100731.00;5055105;28;20037;-73
2022/01/03 01:16:28;;;;;;;39.10;19.42;;;;;;;3.35;nan;100729.69;5053437;28;20037;-73
2022/01/03 01:18:54;;;;;;;39.03;19.70;;;;;;;3.34;nan;100725.47;5053710;28;20033;-73
2022/01/03 01:21:20;;;;;;;40.60;20.67;;;;;;;3.29;nan;100712.16;5035821;28;20037;-73
2022/01/03 01:23:48;;;;;;;44.90;24.55;;;;;;;3.18;nan;100700.31;5054186;28;20052;-73
2022/01/03 01:28:58;;;;;;;41.83;21.67;;;;;;;3.35;nan;100713.25;5052778;28;20033;-73
2022/01/03 01:31:24;;;;;;;36.80;20.58;;;;;;;3.34;nan;100701.22;5053665;28;20466;-72
2022/01/03 01:33:53;;;;;;;36.42;19.27;;;;;;;3.37;nan;100708.69;5053881;28;20041;-73
2022/01/03 01:36:28;;;;;;;34.83;19.00;;;;;;;3.38;nan;100710.31;5053455;28;20072;-73
2022/01/03 01:39:08;;;;;;;33.03;18.25;;;;;;;3.35;nan;100700.22;5034403;28;20045;-73
2022/01/03 01:41:38;;;;;;;33.47;17.60;;;;;;;3.20;nan;100689.72;5047120;28;20060;-73
2022/01/03 01:44:08;;;;;;;27.27;16.00;;;;;;;3.32;nan;100713.59;5035620;28;20490;-73
2022/01/03 01:46:40;;;;;;;27.20;15.27;;;;;;;3.23;nan;100699.00;5053634;28;20040;-73
2022/01/03 01:49:05;;;;;;;30.50;15.43;;;;;;;3.20;nan;100694.94;5050366;28;20063;-73
2022/01/03 01:51:36;;;;;;;25.83;14.23;;;;;;;3.16;nan;100701.44;5054018;28;20029;-72
2022/01/03 01:54:04;;;;;;;27.35;14.73;;;;;;;3.11;nan;100709.78;5053327;28;20035;-73
2022/01/03 01:57:00;;;;;;;27.85;14.68;;;;;;;3.18;nan;100717.72;5054269;28;20095;-73
2022/01/03 01:59:41;;;;;;;24.63;13.98;;;;;;;3.04;nan;100698.44;5032801;28;20032;-73
2022/01/03 02:02:14;;;;;;;30.30;15.20;;;;;;;3.10;nan;100728.97;5043276;28;20037;-73
2022/01/03 02:04:46;;;;;;;27.55;15.15;;;;;;;3.07;nan;100724.09;5049995;28;20047;-73
2022/01/03 02:07:43;;;;;;;32.17;15.88;;;;;;;2.99;nan;100703.28;5053499;28;20040;-73
2022/01/03 02:10:24;;;;;;;30.80;16.50;;;;;;;3.01;nan;100703.94;5053480;28;20110;-73
2022/01/03 02:12:50;;;;;;;37.67;19.25;;;;;;;2.91;nan;100695.53;5053050;28;20147;-72
2022/01/03 02:15:18;;;;;;;36.83;19.88;;;;;;;2.81;nan;100682.72;5035488;28;20398;-72
2022/01/03 02:17:45;;;;;;;39.38;20.05;;;;;;;2.83;nan;100677.38;5053310;28;20043;-73
2022/01/03 02:20:14;;;;;;;39.08;20.13;;;;;;;2.88;nan;100686.28;5053267;28;20036;-72
2022/01/03 02:22:41;;;;;;;40.50;20.92;;;;;;;2.86;nan;100677.81;5053187;28;20045;-72
2022/01/03 02:25:09;;;;;;;38.42;20.33;;;;;;;2.90;nan;100667.91;5034243;28;20140;-72
2022/01/03 02:27:35;;;;;;;36.83;18.42;;;;;;;2.91;nan;100669.53;5053801;28;20036;-72
2022/01/03 02:30:01;;;;;;;37.22;18.33;;;;;;;2.76;nan;100659.81;5052734;28;20031;-72
2022/01/03 02:32:26;;;;;;;34.03;18.25;;;;;;;2.85;nan;100663.22;5052934;28;20453;-73
2022/01/03 02:34:52;;;;;;;38.75;19.20;;;;;;;2.87;nan;100666.44;5052879;28;20028;-72
2022/01/03 02:37:17;;;;;;;41.97;20.35;;;;;;;2.84;nan;100652.97;5051361;28;20044;-72
2022/01/03 02:39:43;;;;;;;36.88;19.75;;;;;;;2.87;nan;100660.41;5052058;28;20823;-73
2022/01/03 02:42:09;;;;;;;33.67;17.63;;;;;;;2.79;nan;100647.47;5034171;28;20036;-72
2022/01/03 02:44:35;;;;;;;34.92;18.08;;;;;;;2.60;nan;100618.25;5053335;28;20040;-73
2022/01/03 02:47:00;;;;;;;34.03;17.38;;;;;;;2.82;nan;100642.72;5053035;28;20032;-72
2022/01/03 02:49:26;;;;;;;32.35;17.75;;;;;;;2.72;nan;100645.50;5053086;28;20037;-72
2022/01/03 02:51:51;;;;;;;30.52;16.83;;;;;;;2.67;nan;100647.00;5034184;28;20128;-73
2022/01/03 02:54:16;;;;;;;33.13;17.67;;;;;;;2.59;nan;100649.63;5052919;28;20542;-73
2022/01/03 02:56:42;;;;;;;30.80;17.20;;;;;;;2.52;nan;100633.88;5051940;28;20043;-73
2022/01/03 02:59:16;;;;;;;31.00;17.23;;;;;;;2.61;nan;100647.66;5052575;28;20497;-73
2022/01/03 03:01:46;;;;;;;35.58;17.17;;;;;;;2.54;nan;100643.13;5033929;28;20033;-73
2022/01/03 03:04:12;;;;;;;32.88;17.48;;;;;;;2.58;nan;100654.00;5052859;28;20385;-73
2022/01/03 03:06:38;;;;;;;31.35;16.40;;;;;;;2.62;nan;100659.69;5051654;28;20128;-73
2022/01/03 03:09:05;;;;;;;28.15;16.27;;;;;;;2.47;nan;100625.78;5051742;28;20102;-73
2022/01/03 03:11:35;;;;;;;31.23;16.92;;;;;;;2.54;nan;100624.13;5052585;28;20096;-73
2022/01/03 03:14:01;;;;;;;31.88;16.70;;;;;;;2.57;nan;100647.19;5052588;28;20033;-73
2022/01/03 03:16:27;;;;;;;28.58;15.98;;;;;;;2.55;nan;100646.53;5051997;28;20497;-73
2022/01/03 03:18:53;;;;;;;30.50;16.20;;;;;;;2.52;nan;100641.69;5034003;28;20385;-73
2022/01/03 03:21:18;;;;;;;30.90;15.90;;;;;;;2.49;nan;100655.00;5034055;28;20029;-72
2022/01/03 03:23:44;;;;;;;33.17;15.82;;;;;;;2.39;nan;100638.78;5033777;28;20131;-73
2022/01/03 03:26:13;;;;;;;32.33;16.88;;;;;;;2.48;nan;100650.78;5034147;28;20041;-73
2022/01/03 03:28:39;;;;;;;29.35;16.63;;;;;;;2.48;nan;100649.00;5052094;28;20033;-73
2022/01/03 03:31:05;;;;;;;30.70;16.05;;;;;;;2.50;nan;100661.81;5034245;28;20440;-73
2022/01/03 03:33:32;;;;;;;30.00;15.55;;;;;;;2.50;nan;100661.81;5033477;28;20044;-73
2022/01/03 03:35:59;;;;;;;29.60;15.68;;;;;;;2.49;nan;100668.00;5033960;28;20037;-73
2022/01/03 03:38:26;;;;;;;28.45;15.70;;;;;;;2.51;nan;100676.44;5051149;28;20047;-73
2022/01/03 03:40:53;;;;;;;30.33;15.90;;;;;;;2.43;nan;100679.88;5033828;28;20033;-73
2022/01/03 03:43:19;;;;;;;28.67;15.45;;;;;;;2.48;nan;100676.78;5033673;28;20029;-73
2022/01/03 03:45:45;;;;;;;29.70;15.15;;;;;;;2.42;nan;100670.47;5051848;28;20446;-73
2022/01/03 03:48:11;;;;;;;27.95;14.80;;;;;;;2.41;nan;100665.41;5033771;28;20032;-73
2022/01/03 03:50:37;;;;;;;29.10;14.73;;;;;;;2.38;nan;100661.34;5051925;28;20033;-73
2022/01/03 03:53:03;;;;;;;25.90;14.15;;;;;;;2.36;nan;100659.91;5034000;28;20032;-73
2022/01/03 03:55:28;;;;;;;49.28;17.75;;;;;;;2.33;nan;100653.25;5033058;28;20040;-73
2022/01/03 03:57:54;;;;;;;28.70;15.68;;;;;;;2.33;nan;100643.66;5033558;28;20394;-73
2022/01/03 04:00:20;;;;;;;30.08;15.02;;;;;;;2.33;nan;100651.47;5051580;28;20486;-72
2022/01/03 04:02:45;;;;;;;27.27;15.27;;;;;;;2.29;nan;100639.75;5051653;28;20036;-73
2022/01/03 04:05:11;;;;;;;32.55;16.17;;;;;;;2.29;nan;100639.75;5032722;28;20037;-73
2022/01/03 04:07:37;;;;;;;32.08;16.80;;;;;;;2.37;nan;100658.91;5032909;28;20028;-73
2022/01/03 04:10:04;;;;;;;25.83;15.30;;;;;;;2.38;nan;100666.56;5051508;28;20036;-72
2022/01/03 04:12:30;;;;;;;29.33;16.15;;;;;;;2.30;nan;100654.38;5051091;28;20127;-72
2022/01/03 04:14:55;;;;;;;30.17;15.30;;;;;;;2.31;nan;100656.00;5033383;28;20115;-72
2022/01/03 04:17:20;;;;;;;30.83;15.10;;;;;;;2.32;nan;100638.63;5051134;28;20025;-72
2022/01/03 04:19:46;;;;;;;26.25;15.18;;;;;;;2.38;nan;100650.16;5050982;28;20169;-73
2022/01/03 04:22:11;;;;;;;27.20;14.65;;;;;;;2.35;nan;100638.31;5051264;28;20127;-73
2022/01/03 04:24:37;;;;;;;29.23;14.80;;;;;;;2.31;nan;100627.41;5051072;28;20033;-73
2022/01/03 04:27:02;;;;;;;29.40;14.40;;;;;;;2.32;nan;100636.03;5033518;28;20037;-74
2022/01/03 04:29:29;;;;;;;23.95;13.95;;;;;;;2.30;nan;100638.81;5051441;28;20115;-73
2022/01/03 04:31:54;;;;;;;29.05;15.07;;;;;;;2.31;nan;100643.00;5051391;28;20140;-72
2022/01/03 04:34:20;;;;;;;27.60;15.13;;;;;;;2.32;nan;100641.22;5032308;28;20131;-72
2022/01/03 04:36:46;;;;;;;24.83;14.20;;;;;;;2.27;nan;100622.72;5051161;28;20037;-73
2022/01/03 04:39:11;;;;;;;27.77;14.68;;;;;;;2.31;nan;100637.00;5050087;28;20477;-73
2022/01/03 04:41:37;;;;;;;27.83;14.27;;;;;;;2.24;nan;100636.03;5051554;28;20025;-72
2022/01/03 04:44:05;;;;;;;26.05;14.43;;;;;;;2.26;nan;100621.09;5033046;28;20475;-73
2022/01/03 04:46:32;;;;;;;26.10;14.63;;;;;;;2.16;nan;100600.50;5050469;28;20033;-73
2022/01/03 04:48:58;;;;;;;28.38;15.20;;;;;;;2.14;nan;100607.63;5032643;28;20045;-73
2022/01/03 04:51:23;;;;;;;26.17;15.13;;;;;;;2.10;nan;100608.94;5051057;28;20040;-73
2022/01/03 04:53:49;;;;;;;28.50;15.07;;;;;;;2.10;nan;100608.94;5032911;28;20502;-73
2022/01/03 04:56:14;;;;;;;31.15;15.23;;;;;;;2.03;nan;100605.38;5050470;28;20116;-73
2022/01/03 04:58:41;;;;;;;32.55;16.42;;;;;;;2.17;nan;100628.09;5050771;28;20086;-72
2022/01/03 05:01:07;;;;;;;30.88;15.95;;;;;;;2.10;nan;100606.34;5051166;28;20033;-73
2022/01/03 05:03:33;;;;;;;32.22;16.55;;;;;;;2.17;nan;100617.69;5051421;28;20390;-73
2022/01/03 05:06:01;;;;;;;31.52;17.38;;;;;;;2.23;nan;100614.44;5050192;28;20029;-73
2022/01/03 05:08:26;;;;;;;37.25;17.55;;;;;;;2.13;nan;100603.41;5032819;28;20037;-73
2022/01/03 05:10:52;;;;;;;31.73;17.00;;;;;;;2.17;nan;100612.50;5032787;28;20485;-73
2022/01/03 05:13:17;;;;;;;30.58;16.50;;;;;;;2.18;nan;100626.28;5050488;28;20116;-73
2022/01/03 05:15:43;;;;;;;32.63;17.30;;;;;;;2.12;nan;100617.38;5050706;28;20029;-73
2022/01/03 05:18:08;;;;;;;32.22;16.75;;;;;;;2.11;nan;100608.78;5054019;28;20528;-73
2022/01/03 05:20:33;;;;;;;30.63;16.88;;;;;;;2.12;nan;100604.38;5035932;28;20044;-73
2022/01/03 05:22:59;;;;;;;30.63;16.42;;;;;;;2.18;nan;100618.50;5054017;28;20539;-73
2022/01/03 05:25:24;;;;;;;29.42;16.65;;;;;;;2.18;nan;100616.75;5035737;28;20040;-73
2022/01/03 05:27:50;;;;;;;29.42;16.25;;;;;;;2.15;nan;100614.44;5054413;28;20766;-74
2022/01/03 05:30:15;;;;;;;26.52;15.43;;;;;;;2.11;nan;100606.19;5053964;28;20061;-73
2022/01/03 05:32:41;;;;;;;32.00;16.90;;;;;;;2.12;nan;100597.41;5054215;28;20039;-73
2022/01/03 05:35:07;;;;;;;385.10;49.70;;;;;;;2.15;nan;100601.47;5036251;28;20120;-73
2022/01/03 05:37:32;;;;;;;34.20;17.70;;;;;;;2.22;nan;100602.41;5053708;28;20045;-73
2022/01/03 05:39:58;;;;;;;32.15;17.80;;;;;;;2.22;nan;100610.22;5053464;28;20041;-73
2022/01/03 05:42:23;;;;;;;36.22;17.77;;;;;;;2.18;nan;100595.94;5034912;28;20660;-73
2022/01/03 05:44:49;;;;;;;38.55;19.27;;;;;;;2.17;nan;100601.31;5053503;28;20044;-73
2022/01/03 05:47:14;;;;;;;37.08;19.52;;;;;;;2.24;nan;100605.66;5052504;28;20033;-74
2022/01/03 05:49:39;;;;;;;40.17;20.52;;;;;;;2.24;nan;100600.47;5053482;28;20041;-73
2022/01/03 05:52:05;;;;;;;39.35;20.10;;;;;;;2.27;nan;100601.94;5035416;28;20037;-73
2022/01/03 05:54:30;;;;;;;40.85;20.17;;;;;;;2.33;nan;100596.88;5053553;28;20033;-73
2022/01/03 05:56:56;;;;;;;41.95;20.80;;;;;;;2.32;nan;100600.47;5053951;28;20029;-73
2022/01/03 05:59:21;;;;;;;37.72;19.85;;;;;;;2.40;nan;100598.84;5053414;28;20040;-73
2022/01/03 06:01:47;;;;;;;42.10;20.05;;;;;;;2.43;nan;100593.28;5035463;28;20040;-73
2022/01/03 06:04:24;;;;;;;37.03;19.30;;;;;;;2.41;nan;100597.84;5051700;28;20082;-73
2022/01/03 06:06:58;;;;;;;37.97;19.20;;;;;;;2.43;nan;100598.50;5032527;28;20044;-73
2022/01/03 06:09:24;;;;;;;37.38;19.13;;;;;;;2.53;nan;100604.31;5031476;28;20090;-73
2022/01/03 06:11:51;;;;;;;40.83;20.33;;;;;;;2.51;nan;100603.66;5033984;28;20029;-73
2022/01/03 06:14:18;;;;;;;34.28;19.25;;;;;;;2.56;nan;100603.97;5034986;28;20045;-73
2022/01/03 06:16:44;;;;;;;42.67;19.10;;;;;;;2.53;nan;100599.09;5032368;28;20044;-73
2022/01/03 06:19:11;;;;;;;43.65;19.52;;;;;;;2.57;nan;100597.00;5049531;28;20041;-73
2022/01/03 06:21:40;;;;;;;35.55;19.73;;;;;;;2.61;nan;100599.09;5039588;28;20075;-73
2022/01/03 06:24:07;;;;;;;;;;;;;;;2.65;nan;100605.56;5042380;28;20490;-72
2022/01/03 06:26:32;;;;;;;38.38;20.08;;;;;;;2.62;nan;100585.09;5046857;28;20370;-73
2022/01/03 06:28:58;;;;;;;43.47;20.70;;;;;;;2.69;nan;100590.44;5052831;28;20060;-74
2022/01/03 06:31:23;;;;;;;40.38;20.08;;;;;;;2.67;nan;100593.22;5048021;28;20372;-74
2022/01/03 06:33:48;;;;;;;36.72;19.17;;;;;;;2.68;nan;100592.25;5034013;28;20040;-74
2022/01/03 06:36:14;;;;;;;38.35;20.83;;;;;;;2.67;nan;100588.00;5052258;28;20029;-74
2022/01/03 06:38:39;;;;;;;38.58;19.80;;;;;;;2.65;nan;100584.75;5048796;28;20052;-73
2022/01/03 06:41:05;;;;;;;40.28;19.67;;;;;;;2.75;nan;100601.00;5034058;28;20478;-75
2022/01/03 06:43:30;;;;;;;37.47;20.88;;;;;;;2.72;nan;100590.09;5052526;28;20090;-74
2022/01/03 06:45:56;;;;;;;39.22;20.33;;;;;;;2.81;nan;100611.69;5033352;28;20029;-73
2022/01/03 06:48:21;;;;;;;39.28;20.35;;;;;;;2.80;nan;100597.84;5050311;28;20059;-73
2022/01/03 06:50:47;;;;;;;40.70;21.02;;;;;;;2.83;nan;100612.34;5034583;28;20116;-73
2022/01/03 06:53:12;;;;;;;556.28;101.72;;;;;;;2.94;nan;100604.16;5050273;28;20037;-73
2022/01/03 06:55:37;;;;;;;159.95;42.92;;;;;;;3.27;nan;100615.19;5032571;28;20115;-73
2022/01/03 06:58:03;;;;;;;47.10;24.50;;;;;;;3.33;nan;100604.13;5055022;28;20044;-73
2022/01/03 07:00:28;;;;;;;44.55;22.92;;;;;;;3.34;nan;100599.72;5032601;28;20099;-73
2022/01/03 07:02:54;;;;;;;40.65;21.55;;;;;;;3.35;nan;100611.72;5043132;28;20033;-71
2022/01/03 07:05:20;;;;;;;39.47;20.77;;;;;;;3.23;nan;100615.72;5034760;28;20029;-78
2022/01/03 07:07:45;;;;;;;36.72;20.40;;;;;;;3.14;nan;100610.56;5033214;28;20485;-74
2022/01/03 07:10:11;;;;;;;67.90;23.50;;;;;;;3.22;nan;100601.91;5053622;28;20037;-74
2022/01/03 07:12:39;;;;;;;40.15;21.27;;;;;;;3.30;nan;100588.81;5035184;28;20098;-74
2022/01/03 07:20:34;;;;;;;48.00;22.98;;;;;;;3.31;nan;100594.88;5046142;28;20167;-78
2022/01/03 07:23:00;;;;;;;46.83;24.42;;;;;;;3.45;nan;100599.31;5052404;28;20124;-78
2022/01/03 07:25:25;;;;;;;52.40;26.08;;;;;;;3.46;nan;100595.72;5040754;28;20116;-77
2022/01/03 07:27:51;;;;;;;50.25;25.38;;;;;;;3.57;nan;100594.53;5040246;28;20044;-79
2022/01/03 07:30:16;;;;;;;49.22;25.33;;;;;;;3.75;nan;100604.63;5033401;28;20033;-78
2022/01/03 07:32:43;;;;;;;47.17;24.38;;;;;;;3.80;nan;100610.94;5034269;28;20029;-79
2022/01/03 07:35:12;;;;;;;45.55;24.15;;;;;;;3.83;nan;100615.81;5036009;28;20505;-79
2022/01/03 07:37:37;;;;;;;47.20;24.10;;;;;;;3.90;nan;100618.50;5032529;28;20048;-76
2022/01/03 07:40:03;;;;;;;53.90;25.05;;;;;;;3.86;nan;100617.25;5034103;28;20053;-79
2022/01/03 07:42:28;;;;;;;55.40;27.23;;;;;;;3.82;nan;100619.38;5030780;28;20049;-73
2022/01/03 07:44:53;;;;;;;46.60;24.77;;;;;;;3.84;nan;100622.63;5049241;28;20112;-73
2022/01/03 07:47:19;;;;;;;51.42;25.67;;;;;;;3.83;nan;100617.56;5044716;28;20449;-74
2022/01/03 07:49:44;;;;;;;51.95;29.60;;;;;;;3.89;nan;100626.50;5031994;28;20120;-74
2022/01/03 07:52:10;;;;;;;54.45;28.50;;;;;;;3.93;nan;100625.19;5047098;28;20032;-74
2022/01/03 07:54:35;;;;;;;55.28;28.73;;;;;;;3.99;nan;100630.47;5033039;28;20105;-74
2022/01/03 07:57:00;;;;;;;58.95;28.90;;;;;;;4.03;nan;100629.16;5033742;28;20039;-75
2022/01/03 07:59:26;;;;;;;62.75;31.50;;;;;;;4.11;nan;100630.88;5032584;28;20041;-75
2022/01/03 08:01:51;;;;;;;67.20;33.15;;;;;;;4.18;nan;100638.78;5056400;28;20029;-76
2022/01/03 08:04:17;;;;;;;67.63;33.30;;;;;;;4.19;nan;100620.38;5051607;28;20530;-76
2022/01/03 08:06:42;;;;;;;71.03;36.60;;;;;;;4.38;nan;100646.91;5051219;28;20033;-75
2022/01/03 08:09:07;;;;;;;77.28;39.22;;;;;;;4.36;nan;100638.47;5050799;28;20039;-75
2022/01/03 08:11:33;;;;;;;81.13;41.40;;;;;;;4.55;nan;100660.59;5051534;28;20146;-75
2022/01/03 08:13:58;;;;;;;85.60;41.00;;;;;;;4.54;nan;100648.56;5050930;28;20032;-75
2022/01/03 08:16:23;;;;;;;90.05;44.55;;;;;;;;;;5046137;28;20033;-76
2022/01/03 08:18:49;;;;;;;96.93;44.80;;;;;;;4.75;nan;100635.59;5026756;28;20406;-75
2022/01/03 08:21:14;;;;;;;96.57;46.42;;;;;;;4.87;nan;100644.59;5049884;28;20285;-75
2022/01/03 08:23:40;;;;;;;90.15;44.75;;;;;;;4.84;nan;100641.56;5050775;28;20044;-75
2022/01/03 08:26:05;;;;;;;97.22;48.40;;;;;;;5.01;nan;100658.63;5032773;28;20478;-75
2022/01/03 08:28:31;;;;;;;96.68;48.67;;;;;;;5.09;nan;100658.50;5050300;28;20032;-75
2022/01/03 08:30:56;;;;;;;93.32;46.38;;;;;;;5.18;nan;100648.78;5051230;28;20028;-76
2022/01/03 08:33:22;;;;;;;106.45;58.88;;;;;;;5.28;nan;100669.38;5046444;28;20068;-75
2022/01/03 08:35:47;;;;;;;82.55;44.97;;;;;;;5.30;nan;100659.56;5047206;28;20025;-75
2022/01/03 08:38:12;;;;;;;80.70;40.75;;;;;;;5.37;nan;100662.25;5032004;28;20072;-75
2022/01/03 08:40:38;;;;;;;72.20;38.67;;;;;;;5.41;nan;100653.88;5049789;28;20148;-74
2022/01/03 08:43:04;;;;;;;69.70;36.15;;;;;;;5.53;nan;100664.63;5050674;28;20029;-74
2022/01/03 08:45:29;;;;;;;68.15;36.15;;;;;;;5.59;nan;100673.53;5031694;28;20102;-75
2022/01/03 08:47:55;;;;;;;64.10;35.15;;;;;;;5.56;nan;100655.63;5050278;28;20044;-75
2022/01/03 08:50:20;;;;;;;69.13;36.17;;;;;;;5.61;nan;100661.09;5031734;28;20030;-74
2022/01/03 08:52:46;;;;;;;62.28;35.03;;;;;;;5.64;nan;100658.13;5055302;28;20037;-76
2022/01/03 08:55:12;;;;;;;63.20;35.00;;;;;;;5.71;nan;100662.41;5036860;28;20033;-72
2022/01/03 08:57:38;;;;;;;64.15;36.53;;;;;;;5.71;nan;100659.00;5034667;28;20036;-73
2022/01/03 09:00:05;;;;;;;67.97;35.72;;;;;;;5.82;nan;100671.56;5053695;28;20036;-73
2022/01/03 09:02:30;;;;;;;66.47;36.08;;;;;;;5.73;nan;100657.81;5054503;28;20398;-73
2022/01/03 09:04:56;;;;;;;62.33;34.58;;;;;;;5.80;nan;100663.09;5054856;28;20043;-73
2022/01/03 09:07:21;;;;;;;66.75;35.83;;;;;;;5.93;nan;100673.66;5054223;28;20044;-74
2022/01/03 09:09:46;;;;;;;65.18;34.17;;;;;;;5.96;nan;100660.28;5054414;28;20037;-73
2022/01/03 09:12:12;;;;;;;60.05;34.00;;;;;;;5.95;nan;100652.59;5054802;28;20029;-73
2022/01/03 09:14:37;;;;;;;66.15;34.80;;;;;;;5.96;nan;100648.97;5036760;28;20540;-73
2022/01/03 09:17:03;;;;;;;62.20;33.08;;;;;;;6.03;nan;100656.88;5054551;28;20029;-75
2022/01/03 09:19:29;;;;;;;59.78;33.15;;;;;;;6.06;nan;100641.66;5036630;28;20389;-75
2022/01/03 09:22:06;;;;;;;54.90;30.50;;;;;;;6.10;nan;100655.94;5036580;28;20039;-75
2022/01/03 09:24:43;;;;;;;61.70;32.58;;;;;;;6.17;nan;100656.78;5054602;28;20085;-75
2022/01/03 09:29:54;;;;;;;54.15;30.27;;;;;;;6.23;nan;100652.63;5054297;28;20517;-75
2022/01/03 09:32:20;;;;;;;58.70;31.45;;;;;;;6.32;nan;100663.75;5054610;28;20033;-75
2022/01/03 09:34:45;;;;;;;55.60;30.30;;;;;;;6.28;nan;100652.06;5054372;28;20427;-74
2022/01/03 09:37:12;;;;;;;57.08;32.20;;;;;;;6.25;nan;100639.34;5053798;28;20083;-74
2022/01/03 09:39:38;;;;;;;56.45;31.73;;;;;;;6.40;nan;100661.00;5034953;28;20128;-73
2022/01/03 09:42:07;;;;;;;54.28;30.55;;;;;;;6.45;nan;100653.38;5035178;28;20463;-74
2022/01/03 09:44:35;;;;;;;55.33;29.83;;;;;;;6.45;nan;100648.16;5053064;28;20501;-73
2022/01/03 09:47:04;;;;;;;56.10;31.33;;;;;;;6.52;nan;100658.66;5032181;28;20826;-73
2022/01/03 09:49:34;;;;;;;52.65;31.15;;;;;;;6.55;nan;100661.69;5051534;28;20037;-73
2022/01/03 09:52:02;;;;;;;56.10;31.92;;;;;;;6.56;nan;100662.50;5048036;28;20037;-74
2022/01/03 09:54:28;;;;;;;56.22;30.70;;;;;;;6.60;nan;100667.16;5027284;28;20043;-74
2022/01/03 09:56:56;;;;;;;61.30;32.85;;;;;;;6.64;nan;100651.91;5052049;28;20078;-75
2022/01/03 09:59:22;;;;;;;230.30;77.00;;;;;;;6.80;nan;100650.78;5052599;28;20116;-76
2022/01/03 10:01:47;;;;;;;96.60;49.47;;;;;;;6.99;nan;100655.31;5033094;28;20102;-75
2022/01/03 10:04:14;;;;;;;69.05;38.92;;;;;;;6.98;nan;100645.81;5045205;28;20055;-75
2022/01/03 10:06:40;;;;;;;61.80;33.85;;;;;;;6.93;nan;100645.59;5042101;28;20069;-74
2022/01/03 10:09:06;;;;;;;62.20;34.42;;;;;;;6.97;nan;100656.50;5053588;28;20075;-75
2022/01/03 10:11:31;;;;;;;56.97;32.10;;;;;;;6.91;nan;100644.19;5053826;28;20032;-74
2022/01/03 10:13:59;;;;;;;58.55;34.15;;;;;;;6.97;nan;100653.88;5048415;28;20119;-74
2022/01/03 10:16:24;;;;;;;57.47;31.75;;;;;;;6.99;nan;100664.94;5052901;28;20037;-74
2022/01/03 10:18:50;;;;;;;55.65;31.55;;;;;;;6.84;nan;100615.34;5053419;28;20033;-74
2022/01/03 10:21:38;;;;;;;53.40;30.63;;;;;;;7.09;nan;100657.56;5053461;28;20029;-75
2022/01/03 10:24:05;;;;;;;53.30;30.67;;;;;;;7.11;nan;100654.72;5052248;28;20036;-75
2022/01/03 10:26:30;;;;;;;58.42;31.63;;;;;;;7.02;nan;100636.59;5052770;28;20036;-75
2022/01/03 10:29:12;;;;;;;54.05;29.48;;;;;;;7.14;nan;100657.78;5047736;28;20037;-75
2022/01/03 10:31:40;;;;;;;53.78;29.92;;;;;;;7.17;nan;100661.81;5052932;28;20135;-74
2022/01/03 10:34:09;;;;;;;54.05;30.10;;;;;;;7.16;nan;100645.31;5053139;28;20037;-74
2022/01/03 10:36:35;;;;;;;52.80;29.40;;;;;;;7.21;nan;100650.75;5052498;28;20033;-74
2022/01/03 10:39:11;;;;;;;50.20;27.38;;;;;;;7.16;nan;100626.13;5052839;28;20517;-74
2022/01/03 10:41:36;;;;;;;48.60;28.52;;;;;;;7.17;nan;100622.53;5053108;28;20033;-75
2022/01/03 10:44:02;;;;;;;46.28;26.95;;;;;;;7.17;nan;100619.91;5053181;28;20377;-75
2022/01/03 10:46:30;;;;;;;51.45;27.45;;;;;;;6.90;nan;100579.75;5043673;28;20037;-74
2022/01/03 10:49:25;;;;;;;47.40;28.05;;;;;;;7.27;nan;100646.53;5051302;28;20029;-74
2022/01/03 10:51:50;;;;;;;50.85;28.20;;;;;;;7.17;nan;100630.38;5026437;28;20398;-75
2022/01/03 10:54:18;;;;;;;52.35;28.23;;;;;;;7.33;nan;100645.75;5047882;28;20040;-74
2022/01/03 10:56:47;;;;;;;48.05;27.67;;;;;;;7.27;nan;100636.06;5052660;28;20037;-74
2022/01/03 10:59:15;;;;;;;50.80;27.35;;;;;;;7.36;nan;100642.72;5038013;28;20036;-74
2022/01/03 11:01:46;;;;;;;47.88;26.95;;;;;;;7.31;nan;100633.88;5052775;28;20037;-74
2022/01/03 11:04:24;;;;;;;52.53;27.88;;;;;;;7.38;nan;100643.34;5052415;28;20036;-74
2022/01/03 11:13:16;;;;;;;53.38;30.27;;;;;;;7.44;nan;100642.53;5051977;28;20029;-73
2022/01/03 11:15:55;;;;;;;53.80;28.35;;;;;;;7.48;nan;100642.16;5047945;28;20033;-73
2022/01/03 11:18:33;;;;;;;50.90;28.85;;;;;;;7.46;nan;100640.53;5049890;28;20037;-74
2022/01/03 11:21:09;;;;;;;54.25;29.45;;;;;;;7.49;nan;100644.56;5052560;28;20102;-73
2022/01/03 11:23:36;;;;;;;52.50;30.88;;;;;;;7.53;nan;100640.56;5052939;28;20040;-74
2022/01/03 11:26:23;;;;;;;54.45;29.15;;;;;;;7.52;nan;100643.38;5052008;28;20414;-73
2022/01/03 11:28:49;;;;;;;51.72;29.30;;;;;;;7.46;nan;100635.28;5032935;28;20514;-73
2022/01/03 11:31:17;;;;;;;53.22;29.40;;;;;;;7.52;nan;100632.88;5052277;28;20040;-73
2022/01/03 11:33:46;;;;;;;53.38;30.67;;;;;;;7.58;nan;100637.34;5034347;28;20036;-75
2022/01/03 11:36:12;;;;;;;60.17;31.48;;;;;;;7.60;nan;100651.06;5051671;28;20079;-73
2022/01/03 11:38:39;;;;;;;50.75;30.73;;;;;;;7.53;nan;100640.56;5051814;28;20037;-73
2022/01/03 11:41:08;;;;;;;57.60;32.00;;;;;;;7.65;nan;100635.53;5034692;28;20060;-73
2022/01/03 11:43:35;;;;;;;52.67;31.00;;;;;;;7.67;nan;100634.34;5041422;28;20029;-72
2022/01/03 11:46:00;;;;;;;54.97;32.13;;;;;;;7.66;nan;100635.34;5042928;28;20574;-73
2022/01/03 11:48:26;;;;;;;57.78;32.67;;;;;;;7.56;nan;100618.38;5037043;28;20124;-73
2022/01/03 11:51:02;;;;;;;62.47;33.08;;;;;;;7.67;nan;100630.91;5029997;28;20026;-74
2022/01/03 11:53:29;;;;;;;61.60;34.20;;;;;;;7.61;nan;100615.97;5017702;28;20153;-73